createdAt,value
2023-12-29T00:03:56.692Z,8.78
2023-12-29T00:08:56.642Z,8.84
2023-12-29T00:13:56.516Z,8.92
2023-12-29T00:18:56.577Z,8.99
2023-12-29T00:23:56.367Z,9.06
2023-12-29T00:28:56.375Z,9.11
2023-12-29T00:33:56.379Z,9.16
2023-12-29T00:38:56.212Z,9.22
2023-12-29T00:43:56.121Z,9.29
2023-12-29T00:48:56.174Z,9.35
2023-12-29T00:53:55.996Z,9.40
2023-12-29T00:58:55.939Z,9.44
2023-12-29T01:03:56.147Z,9.47
2023-12-29T01:08:55.784Z,9.49
2023-12-29T01:13:55.736Z,9.50
2023-12-29T01:18:55.757Z,9.51
2023-12-29T01:23:55.606Z,9.52
2023-12-29T01:28:55.516Z,9.54
2023-12-29T01:33:55.516Z,9.56
2023-12-29T01:38:55.387Z,9.57
2023-12-29T01:43:55.365Z,9.59
2023-12-29T01:48:55.413Z,9.61
2023-12-29T01:53:55.219Z,9.63
2023-12-29T01:58:55.467Z,9.64
2023-12-29T02:03:55.230Z,9.66
2023-12-29T02:08:55.002Z,9.66
2023-12-29T02:13:54.946Z,9.67
2023-12-29T02:18:54.988Z,9.68
2023-12-29T02:23:54.822Z,9.69
2023-12-29T02:28:54.724Z,9.69
2023-12-29T02:33:54.822Z,9.70
2023-12-29T02:38:54.619Z,9.71
2023-12-29T02:43:54.555Z,9.72
2023-12-29T02:48:54.508Z,9.73
2023-12-29T02:53:54.437Z,9.74
2023-12-29T02:58:54.334Z,9.75
2023-12-29T03:03:54.286Z,9.76
2023-12-29T03:08:54.218Z,9.76
2023-12-29T03:13:54.148Z,9.78
2023-12-29T03:18:54.149Z,9.81
2023-12-29T03:23:54.017Z,9.84
2023-12-29T03:28:53.950Z,9.86
2023-12-29T03:33:54.010Z,9.89
2023-12-29T03:38:53.808Z,9.91
2023-12-29T03:43:53.765Z,9.92
2023-12-29T03:48:53.939Z,9.93
2023-12-29T03:53:53.624Z,9.94
2023-12-29T03:58:53.541Z,9.94
2023-12-29T04:03:53.516Z,9.95
2023-12-29T04:08:53.412Z,9.95
2023-12-29T04:13:53.361Z,9.95
2023-12-29T04:18:53.421Z,9.94
2023-12-29T04:23:53.235Z,9.94
2023-12-29T04:28:53.144Z,9.94
2023-12-29T04:33:53.135Z,9.95
2023-12-29T04:38:53.006Z,9.96
2023-12-29T04:43:52.969Z,9.97
2023-12-29T04:48:52.904Z,9.98
2023-12-29T04:53:52.844Z,9.99
2023-12-29T04:58:52.747Z,10.01
2023-12-29T05:03:52.754Z,10.02
2023-12-29T05:08:52.621Z,10.03
2023-12-29T05:14:13.569Z,10.04
2023-12-29T05:18:52.570Z,10.04
2023-12-29T05:23:52.407Z,10.03
2023-12-29T05:28:52.351Z,10.03
2023-12-29T05:33:52.380Z,10.02
2023-12-29T05:38:52.219Z,10.01
2023-12-29T05:43:52.150Z,10.00
2023-12-29T05:48:52.185Z,9.99
2023-12-29T05:53:52.007Z,9.96
2023-12-29T05:58:51.986Z,9.91
2023-12-29T06:03:52.862Z,9.86
2023-12-29T06:08:51.874Z,9.82
2023-12-29T06:13:51.762Z,9.78
2023-12-29T06:18:51.838Z,9.76
2023-12-29T06:23:51.612Z,9.74
2023-12-29T06:28:51.565Z,9.72
2023-12-29T06:33:52.461Z,9.71
2023-12-29T06:38:51.434Z,9.70
2023-12-29T06:43:51.359Z,9.70
2023-12-29T06:48:51.465Z,9.70
2023-12-29T06:53:51.215Z,9.70
2023-12-29T06:58:51.174Z,9.69
2023-12-29T07:03:51.150Z,9.68
2023-12-29T07:08:51.049Z,9.68
2023-12-29T07:13:50.963Z,9.69
2023-12-29T07:18:50.986Z,9.70
2023-12-29T07:23:50.841Z,9.71
2023-12-29T07:28:50.785Z,9.73
2023-12-29T07:33:50.853Z,9.75
2023-12-29T07:38:50.670Z,9.76
2023-12-29T07:43:50.568Z,9.77
2023-12-29T07:48:50.746Z,9.79
2023-12-29T07:53:50.447Z,9.83
2023-12-29T07:58:50.619Z,9.88
2023-12-29T08:03:50.369Z,9.94
2023-12-29T08:08:50.261Z,10.02
2023-12-29T08:13:50.177Z,10.10
2023-12-29T08:18:50.228Z,10.18
2023-12-29T08:23:50.050Z,10.26
2023-12-29T08:28:50.018Z,10.32
2023-12-29T08:33:50.049Z,10.38
2023-12-29T08:38:49.873Z,10.43
2023-12-29T08:43:49.795Z,10.46
2023-12-29T08:48:49.788Z,10.48
2023-12-29T08:53:49.635Z,10.49
2023-12-29T08:58:49.574Z,10.51
2023-12-29T09:03:49.631Z,10.55
2023-12-29T09:08:49.496Z,10.59
2023-12-29T09:13:49.373Z,10.62
2023-12-29T09:18:49.424Z,10.63
2023-12-29T09:23:50.248Z,10.64
2023-12-29T09:28:49.207Z,10.68
2023-12-29T09:33:49.332Z,10.76
2023-12-29T09:38:49.094Z,10.90
2023-12-29T09:43:49.001Z,11.05
2023-12-29T09:48:49.082Z,11.11
2023-12-29T09:53:48.853Z,11.10
2023-12-29T09:58:48.842Z,11.13
2023-12-29T10:03:48.904Z,11.31
2023-12-29T10:08:48.674Z,11.60
2023-12-29T10:13:48.580Z,11.85
2023-12-29T10:18:48.689Z,12.03
2023-12-29T10:23:48.453Z,12.25
2023-12-29T10:28:48.394Z,12.62
2023-12-29T10:33:48.408Z,12.93
2023-12-29T10:38:48.269Z,13.22
2023-12-29T10:43:48.202Z,13.46
2023-12-29T10:48:48.217Z,13.60
2023-12-29T10:53:48.050Z,13.60
2023-12-29T10:58:48.015Z,13.50
2023-12-29T11:03:47.963Z,13.34
2023-12-29T11:08:47.872Z,13.24
2023-12-29T11:13:47.820Z,13.38
2023-12-29T11:18:47.852Z,13.66
2023-12-29T11:23:47.652Z,13.85
2023-12-29T11:28:47.631Z,13.85
2023-12-29T11:33:47.709Z,13.70
2023-12-29T11:38:47.512Z,13.47
2023-12-29T11:43:47.391Z,13.26
2023-12-29T11:48:47.443Z,13.14
2023-12-29T11:53:47.261Z,13.20
2023-12-29T11:58:47.238Z,13.28
2023-12-29T12:03:47.200Z,13.31
2023-12-29T12:08:47.104Z,13.36
2023-12-29T12:13:46.995Z,13.41
2023-12-29T12:18:47.008Z,13.51
2023-12-29T12:23:46.878Z,13.61
2023-12-29T12:28:46.844Z,13.64
2023-12-29T12:33:46.828Z,13.58
2023-12-29T12:38:46.692Z,13.46
2023-12-29T12:43:46.624Z,13.41
2023-12-29T12:48:46.712Z,13.39
2023-12-29T12:53:46.487Z,13.36
2023-12-29T12:58:46.422Z,13.31
2023-12-29T13:03:46.716Z,13.28
2023-12-29T13:08:46.283Z,13.28
2023-12-29T13:13:46.198Z,13.23
2023-12-29T13:18:46.245Z,13.11
2023-12-29T13:23:46.077Z,12.92
2023-12-29T13:28:46.042Z,12.65
2023-12-29T13:33:47.509Z,12.38
2023-12-29T13:38:46.855Z,12.12
2023-12-29T13:43:45.830Z,11.90
2023-12-29T13:48:45.861Z,11.73
2023-12-29T13:53:45.675Z,11.61
2023-12-29T13:58:45.676Z,11.54
2023-12-29T14:03:45.645Z,11.52
2023-12-29T14:08:45.489Z,11.48
2023-12-29T14:13:45.446Z,11.41
2023-12-29T14:18:45.451Z,11.32
2023-12-29T14:28:45.227Z,11.16
2023-12-29T14:33:45.207Z,11.08
2023-12-29T14:38:45.098Z,11.01
2023-12-29T14:43:45.032Z,10.95
2023-12-29T14:48:45.130Z,10.90
2023-12-29T14:53:44.888Z,10.84
2023-12-29T14:58:44.830Z,10.79
2023-12-29T15:03:44.800Z,10.75
2023-12-29T15:08:44.709Z,10.70
2023-12-29T15:13:44.629Z,10.66
2023-12-29T15:18:44.673Z,10.62
2023-12-29T15:23:44.529Z,10.58
2023-12-29T15:28:44.452Z,10.55
2023-12-29T15:33:44.430Z,10.51
2023-12-29T15:38:44.340Z,10.47
2023-12-29T15:43:44.226Z,10.44
2023-12-29T15:48:44.271Z,10.41
2023-12-29T15:53:44.082Z,10.38
2023-12-29T15:58:44.054Z,10.37
2023-12-29T16:03:44.020Z,10.37
2023-12-29T16:08:43.937Z,10.38
2023-12-29T16:13:43.823Z,10.39
2023-12-29T16:18:43.977Z,10.41
2023-12-29T16:23:43.681Z,10.42
2023-12-29T16:28:43.796Z,10.43
2023-12-29T16:33:43.716Z,10.43
2023-12-29T16:38:43.509Z,10.43
2023-12-29T16:43:43.438Z,10.43
2023-12-29T16:48:43.421Z,10.43
2023-12-29T16:53:43.314Z,10.44
2023-12-29T16:58:43.299Z,10.44
2023-12-29T17:03:44.174Z,10.45
2023-12-29T17:08:43.130Z,10.45
2023-12-29T17:13:43.025Z,10.46
2023-12-29T17:18:43.203Z,10.46
2023-12-29T17:23:42.909Z,10.47
2023-12-29T17:28:42.837Z,10.47
2023-12-29T17:33:42.901Z,10.47
2023-12-29T17:38:42.913Z,10.47
2023-12-29T17:43:42.624Z,10.47
2023-12-29T17:48:42.716Z,10.47
2023-12-29T17:53:42.524Z,10.46
2023-12-29T17:58:42.481Z,10.42
2023-12-29T18:03:42.554Z,10.34
2023-12-29T18:08:42.300Z,10.25
2023-12-29T18:13:42.446Z,10.17
2023-12-29T18:18:44.842Z,10.11
2023-12-29T18:23:42.090Z,10.08
2023-12-29T18:28:42.044Z,10.07
2023-12-29T18:33:42.175Z,10.06
2023-12-29T18:38:41.860Z,10.06
2023-12-29T18:43:41.953Z,10.05
2023-12-29T18:48:41.930Z,10.02
2023-12-29T18:53:41.815Z,9.97
2023-12-29T18:58:41.650Z,9.93
2023-12-29T19:03:41.643Z,9.89
2023-12-29T19:08:41.511Z,9.87
2023-12-29T19:13:41.444Z,9.87
2023-12-29T19:18:41.438Z,9.87
2023-12-29T19:23:41.314Z,9.85
2023-12-29T19:28:41.241Z,9.83
2023-12-29T19:33:41.503Z,9.82
2023-12-29T19:38:41.101Z,9.83
2023-12-29T19:43:41.055Z,9.85
2023-12-29T19:48:41.064Z,9.87
2023-12-29T19:53:40.966Z,9.91
2023-12-29T19:58:40.837Z,9.94
2023-12-29T20:03:40.893Z,9.96
2023-12-29T20:08:40.709Z,9.97
2023-12-29T20:13:40.667Z,9.97
2023-12-29T20:18:40.719Z,9.99
2023-12-29T20:23:42.921Z,10.02
2023-12-29T20:28:40.432Z,10.03
2023-12-29T20:33:40.501Z,10.04
2023-12-29T20:38:40.372Z,10.03
2023-12-29T20:43:40.560Z,10.02
2023-12-29T20:48:40.372Z,9.99
2023-12-29T20:53:40.145Z,9.96
2023-12-29T20:58:40.083Z,9.94
2023-12-29T21:03:40.074Z,9.92
2023-12-29T21:08:39.914Z,9.90
2023-12-29T21:13:39.992Z,9.90
2023-12-29T21:18:39.842Z,9.92
2023-12-29T21:23:39.755Z,9.95
2023-12-29T21:28:39.744Z,9.99
2023-12-29T21:33:39.628Z,10.01
2023-12-29T21:38:39.548Z,10.03
2023-12-29T21:43:39.506Z,10.05
2023-12-29T21:48:39.432Z,10.07
2023-12-29T21:53:39.355Z,10.08
2023-12-29T21:58:39.250Z,10.09
2023-12-29T22:03:39.398Z,10.09
2023-12-29T22:08:39.116Z,10.08
2023-12-29T22:13:39.067Z,10.05
2023-12-29T22:18:38.982Z,9.98
2023-12-29T22:23:38.927Z,9.90
2023-12-29T22:28:38.889Z,9.83
2023-12-29T22:33:39.095Z,9.76
2023-12-29T22:38:38.739Z,9.69
2023-12-29T22:43:38.700Z,9.64
2023-12-29T22:48:38.613Z,9.64
2023-12-29T22:53:38.523Z,9.65
2023-12-29T22:58:38.432Z,9.67
2023-12-29T23:03:38.408Z,9.66
2023-12-29T23:08:38.411Z,9.65
2023-12-29T23:13:38.308Z,9.64
2023-12-29T23:18:39.153Z,9.63
